Terminal Aerodrome Forecast
Issued by NWS

Current Version | Previous Version | Text Only | Print | Product List | Glossary On
Versions: 1 2 3 4 5 6 7 8 9 10 11 12 13 14 15 16 17 18 19 20 21
000
FTUS43 KILX 281452 AAC
TAFDEC
TAF AMD
KDEC 281452Z 2815/2912 09006KT P6SM SCT025 BKN035
      TEMPO 2815/2817 BKN025
     FM281700 VRB05KT P6SM VCTS SCT025CB BKN035
     FM282200 31004KT P6SM BKN050=

USA.gov is the U.S. government's official web portal to all federal, state and local government web resources and services.